Terminal Aerodrome Forecast
Issued by NWS

Home | Current Version | Previous Version | Text Only | Print | Product List | Glossary On
Versions: 1 2 3 4 5 6 7 8 9 10 11 12 13 14 15 16 17 18 19 20 21 22 23 24
000
FTUS42 KFFC 201123
TAFFTY
TAF
KFTY 201123Z 2012/2112 13005KT 6SM BR BKN008
      TEMPO 2012/2014 2SM BR BKN003
     FM201500 14007KT 6SM BR SCT008 BKN012
     FM201800 14007KT P6SM BKN012
     FM202000 14006KT P6SM SCT015 BKN035
     FM210200 13005KT P6SM BKN020
     FM210400 14005KT P6SM FEW006 BKN012
     FM211000 15006KT 4SM BR OVC004=

USA.gov is the U.S. government's official web portal to all federal, state and local government web resources and services.